createdAt,value
2023-11-23T00:01:51.673Z,83.49
2023-11-23T00:04:22.251Z,83.52
2023-11-23T00:06:50.711Z,83.34
2023-11-23T00:09:20.601Z,83.31
2023-11-23T00:11:49.001Z,83.12
2023-11-23T00:14:17.447Z,83.19
2023-11-23T00:16:45.939Z,83.32
2023-11-23T00:19:15.551Z,83.44
2023-11-23T00:21:43.713Z,83.67
2023-11-23T00:24:12.177Z,83.45
2023-11-23T00:26:40.327Z,83.80
2023-11-23T00:29:08.496Z,83.62
2023-11-23T00:31:36.932Z,83.55
2023-11-23T00:34:06.703Z,83.35
2023-11-23T00:36:38.851Z,83.25
2023-11-23T00:39:09.972Z,82.91
2023-11-23T00:41:41.015Z,82.59
2023-11-23T00:44:09.421Z,82.41
2023-11-23T00:46:37.677Z,82.46
2023-11-23T00:49:06.542Z,82.07
2023-11-23T00:51:37.678Z,81.95
2023-11-23T00:54:06.375Z,82.04
2023-11-23T00:56:34.465Z,81.78
2023-11-23T00:59:02.532Z,81.90
2023-11-23T01:01:30.821Z,81.63
2023-11-23T01:03:59.503Z,81.95
2023-11-23T01:06:27.658Z,81.98
2023-11-23T01:08:57.306Z,81.88
2023-11-23T01:11:26.053Z,81.69
2023-11-23T01:13:55.333Z,81.60
2023-11-23T01:16:24.063Z,81.76
2023-11-23T01:18:52.983Z,81.66
2023-11-23T01:21:21.063Z,81.51
2023-11-23T01:23:49.141Z,81.76
2023-11-23T01:26:18.669Z,81.97
2023-11-23T01:28:46.867Z,82.00
2023-11-23T01:31:15.247Z,81.74
2023-11-23T01:33:43.936Z,81.66
2023-11-23T01:36:12.210Z,81.63
2023-11-23T01:38:40.357Z,81.55
2023-11-23T01:41:08.893Z,81.38
2023-11-23T01:43:38.343Z,81.39
2023-11-23T01:46:06.723Z,81.53
2023-11-23T01:48:35.349Z,81.55
2023-11-23T01:51:04.919Z,81.39
2023-11-23T01:53:33.363Z,81.37
2023-11-23T01:56:02.221Z,81.57
2023-11-23T01:58:31.090Z,81.37
2023-11-23T02:01:00.635Z,81.19
2023-11-23T02:03:29.356Z,81.12
2023-11-23T02:05:57.801Z,80.94
2023-11-23T02:08:25.951Z,80.80
2023-11-23T02:10:54.847Z,80.89
2023-11-23T02:13:24.007Z,81.00
2023-11-23T02:15:52.198Z,81.00
2023-11-23T02:18:21.838Z,80.79
2023-11-23T02:20:50.265Z,80.98
2023-11-23T02:23:18.730Z,81.01
2023-11-23T02:25:48.780Z,80.98
2023-11-23T02:28:16.945Z,81.01
2023-11-23T02:30:46.217Z,80.94
2023-11-23T02:33:16.093Z,80.80
2023-11-23T02:35:45.306Z,81.27
2023-11-23T02:38:13.422Z,81.37
2023-11-23T02:40:41.917Z,81.50
2023-11-23T02:43:11.827Z,81.63
2023-11-23T02:45:40.550Z,81.47
2023-11-23T02:48:09.336Z,81.39
2023-11-23T02:50:38.138Z,81.44
2023-11-23T02:53:06.328Z,81.57
2023-11-23T02:55:34.566Z,81.66
2023-11-23T02:58:03.168Z,81.64
2023-11-23T03:00:34.560Z,81.53
2023-11-23T03:03:02.943Z,81.35
2023-11-23T03:05:31.443Z,81.31
2023-11-23T03:07:59.832Z,81.32
2023-11-23T03:10:28.615Z,81.23
2023-11-23T03:12:57.099Z,81.28
2023-11-23T03:15:25.277Z,81.35
2023-11-23T03:17:55.071Z,81.50
2023-11-23T03:20:23.315Z,81.57
2023-11-23T03:22:51.753Z,81.76
2023-11-23T03:25:20.015Z,81.85
2023-11-23T03:27:48.284Z,81.83
2023-11-23T03:30:17.034Z,82.01
2023-11-23T03:32:45.568Z,82.14
2023-11-23T03:35:15.983Z,82.24
2023-11-23T03:37:44.198Z,82.32
2023-11-23T03:40:14.033Z,82.34
2023-11-23T03:42:42.111Z,82.27
2023-11-23T03:45:11.587Z,82.36
2023-11-23T03:47:39.869Z,82.44
2023-11-23T03:50:09.051Z,82.51
2023-11-23T03:52:38.664Z,82.55
2023-11-23T03:55:09.419Z,82.61
2023-11-23T03:57:38.535Z,82.66
2023-11-23T04:00:08.531Z,82.68
2023-11-23T04:02:38.553Z,82.79
2023-11-23T04:05:08.112Z,82.88
2023-11-23T04:07:36.281Z,82.97
2023-11-23T04:10:08.312Z,83.10
2023-11-23T04:12:36.550Z,83.19
2023-11-23T04:15:06.758Z,83.28
2023-11-23T04:17:34.997Z,83.36
2023-11-23T04:20:06.944Z,83.45
2023-11-23T04:22:35.634Z,83.62
2023-11-23T04:25:06.720Z,83.72
2023-11-23T04:27:35.838Z,83.81
2023-11-23T04:30:07.972Z,83.90
2023-11-23T04:32:36.132Z,83.99
2023-11-23T04:35:05.889Z,84.18
2023-11-23T04:37:35.240Z,84.19
2023-11-23T04:40:09.524Z,84.26
2023-11-23T04:42:38.863Z,84.33
2023-11-23T04:45:09.987Z,84.56
2023-11-23T04:47:38.359Z,84.78
2023-11-23T04:50:07.556Z,85.07
2023-11-23T04:52:36.217Z,85.33
2023-11-23T04:55:05.051Z,85.51
2023-11-23T04:57:34.789Z,85.78
2023-11-23T05:00:05.894Z,86.07
2023-11-23T05:02:35.041Z,86.36
2023-11-23T05:05:04.962Z,86.77
2023-11-23T05:07:35.427Z,87.05
2023-11-23T05:10:03.679Z,87.22
2023-11-23T05:12:32.062Z,87.49
2023-11-23T05:15:01.862Z,87.69
2023-11-23T05:17:30.382Z,87.98
2023-11-23T05:19:58.514Z,88.22
2023-11-23T05:22:27.316Z,88.37
2023-11-23T05:24:55.438Z,88.59
2023-11-23T05:27:23.501Z,88.77
2023-11-23T05:29:52.914Z,89.02
2023-11-23T05:32:22.478Z,89.14
2023-11-23T05:34:50.652Z,89.26
2023-11-23T05:37:18.818Z,89.43
2023-11-23T05:39:47.246Z,89.66
2023-11-23T05:42:15.630Z,89.90
2023-11-23T05:44:44.294Z,89.93
2023-11-23T05:47:12.808Z,90.11
2023-11-23T05:49:43.051Z,90.23
2023-11-23T05:52:11.253Z,90.29
2023-11-23T05:54:40.668Z,90.38
2023-11-23T05:57:09.035Z,90.48
2023-11-23T05:59:37.902Z,90.45
2023-11-23T06:02:10.128Z,90.42
2023-11-23T06:04:39.146Z,90.49
2023-11-23T06:07:11.508Z,90.41
2023-11-23T06:09:39.565Z,90.35
2023-11-23T06:12:08.295Z,90.25
2023-11-23T06:14:37.699Z,90.40
2023-11-23T06:17:06.609Z,90.38
2023-11-23T06:19:34.785Z,90.39
2023-11-23T06:22:03.803Z,90.33
2023-11-23T06:24:33.988Z,90.38
2023-11-23T06:27:02.335Z,90.48
2023-11-23T06:29:30.968Z,90.50
2023-11-23T06:32:02.067Z,90.44
2023-11-23T06:34:31.139Z,90.82
2023-11-23T06:36:59.307Z,91.16
2023-11-23T06:39:27.968Z,91.42
2023-11-23T06:41:57.554Z,91.45
2023-11-23T06:44:26.610Z,91.74
2023-11-23T06:46:54.813Z,91.68
2023-11-23T06:49:22.929Z,91.53
2023-11-23T06:51:51.827Z,91.07
2023-11-23T06:54:20.361Z,90.80
2023-11-23T06:56:48.933Z,90.77
2023-11-23T06:59:19.880Z,90.82
2023-11-23T07:01:48.193Z,90.90
2023-11-23T07:04:17.053Z,91.05
2023-11-23T07:06:47.927Z,91.19
2023-11-23T07:09:18.255Z,91.35
2023-11-23T07:11:58.887Z,91.43
2023-11-23T07:14:29.319Z,91.59
2023-11-23T07:19:42.163Z,91.79
2023-11-23T07:22:13.201Z,91.92
2023-11-23T07:24:43.851Z,92.00
2023-11-23T07:27:15.474Z,92.06
2023-11-23T07:29:51.790Z,92.21
2023-11-23T07:32:35.394Z,92.38
2023-11-23T07:35:14.129Z,92.55
2023-11-23T07:37:43.774Z,92.57
2023-11-23T07:40:18.779Z,92.68
2023-11-23T07:42:47.422Z,92.71
2023-11-23T07:45:21.369Z,92.75
2023-11-23T07:47:53.156Z,92.79
2023-11-23T07:50:21.625Z,93.11
2023-11-23T07:52:50.065Z,93.00
2023-11-23T07:55:19.470Z,92.91
2023-11-23T07:57:50.657Z,92.84
2023-11-23T08:00:24.118Z,92.85
2023-11-23T08:02:54.287Z,92.84
2023-11-23T08:05:23.076Z,92.88
2023-11-23T08:07:52.736Z,92.88
2023-11-23T08:10:21.332Z,92.91
2023-11-23T08:12:49.880Z,92.93
2023-11-23T08:15:18.623Z,92.87
2023-11-23T08:17:58.374Z,92.86
2023-11-23T08:20:33.584Z,92.79
2023-11-23T08:23:02.012Z,92.68
2023-11-23T08:25:31.108Z,92.60
2023-11-23T08:28:00.515Z,92.46
2023-11-23T08:30:29.981Z,92.41
2023-11-23T08:33:02.287Z,92.26
2023-11-23T08:35:30.543Z,92.16
2023-11-23T08:37:59.026Z,92.10
2023-11-23T08:40:27.488Z,91.96
2023-11-23T08:42:55.754Z,91.80
2023-11-23T08:45:23.963Z,91.76
2023-11-23T08:47:52.475Z,91.72
2023-11-23T08:50:22.478Z,91.65
2023-11-23T08:52:51.339Z,91.61
2023-11-23T08:55:20.385Z,91.63
2023-11-23T08:57:52.304Z,91.63
2023-11-23T09:00:25.379Z,91.62
2023-11-23T09:02:55.097Z,91.63
2023-11-23T09:05:24.783Z,91.61
2023-11-23T09:07:55.061Z,91.54
2023-11-23T09:10:24.707Z,91.56
2023-11-23T09:12:53.738Z,91.54
2023-11-23T09:15:24.078Z,91.55
2023-11-23T09:17:53.061Z,91.50
2023-11-23T09:20:21.242Z,91.49
2023-11-23T09:22:53.061Z,91.53
2023-11-23T09:25:21.582Z,91.50
2023-11-23T09:27:51.161Z,91.55
2023-11-23T09:30:19.853Z,91.50
2023-11-23T09:32:48.791Z,91.51
2023-11-23T09:35:17.866Z,91.53
2023-11-23T09:37:46.505Z,91.52
2023-11-23T09:40:24.754Z,91.44
2023-11-23T09:42:56.578Z,91.47
2023-11-23T09:45:26.813Z,91.99
2023-11-23T09:47:57.681Z,92.14
2023-11-23T09:50:36.946Z,92.05
2023-11-23T09:53:09.265Z,91.83
2023-11-23T09:55:40.929Z,91.68
2023-11-23T09:58:09.522Z,91.43
2023-11-23T10:00:38.352Z,91.11
2023-11-23T10:03:11.637Z,90.77
2023-11-23T10:05:40.650Z,90.64
2023-11-23T10:08:11.053Z,90.61
2023-11-23T10:10:41.903Z,90.86
2023-11-23T10:13:10.702Z,91.05
2023-11-23T10:15:39.405Z,91.20
2023-11-23T10:18:10.457Z,91.44
2023-11-23T10:20:40.687Z,91.63
2023-11-23T10:23:11.193Z,91.74
2023-11-23T10:25:46.284Z,91.91
2023-11-23T10:28:15.884Z,92.05
2023-11-23T10:30:44.401Z,92.29
2023-11-23T10:33:14.361Z,92.50
2023-11-23T10:35:44.498Z,92.66
2023-11-23T10:38:16.884Z,92.88
2023-11-23T10:40:50.421Z,93.03
2023-11-23T10:43:20.136Z,93.18
2023-11-23T10:45:50.338Z,93.35
2023-11-23T10:48:22.010Z,93.49
2023-11-23T10:50:50.753Z,93.65
2023-11-23T10:53:18.927Z,93.75
2023-11-23T10:55:50.806Z,93.84
2023-11-23T10:58:20.375Z,94.02
2023-11-23T11:00:51.491Z,94.14
2023-11-23T11:03:20.334Z,94.16
2023-11-23T11:05:51.887Z,94.14
2023-11-23T11:08:21.778Z,94.18
2023-11-23T11:10:55.159Z,94.22
2023-11-23T11:13:25.899Z,94.28
2023-11-23T11:15:54.734Z,94.32
2023-11-23T11:18:24.205Z,94.40
2023-11-23T11:21:03.129Z,94.46
2023-11-23T11:23:42.624Z,94.49
2023-11-23T11:26:14.156Z,94.58
2023-11-23T11:28:42.937Z,94.65
2023-11-23T11:31:15.394Z,94.74
2023-11-23T11:33:44.009Z,94.83
2023-11-23T11:36:13.816Z,94.82
2023-11-23T11:38:42.612Z,94.97
2023-11-23T11:41:14.850Z,94.99
2023-11-23T11:43:45.764Z,95.05
2023-11-23T11:46:14.577Z,95.10
2023-11-23T11:48:43.190Z,95.17
2023-11-23T11:51:12.850Z,95.19
2023-11-23T11:53:41.692Z,95.39
2023-11-23T11:56:10.801Z,95.53
2023-11-23T11:58:44.076Z,95.61
2023-11-23T12:01:12.580Z,95.69
2023-11-23T12:03:41.008Z,95.73
2023-11-23T12:06:11.966Z,95.72
2023-11-23T12:08:40.168Z,95.91
2023-11-23T12:11:08.593Z,95.65
2023-11-23T12:13:37.726Z,95.31
2023-11-23T12:16:08.182Z,95.09
2023-11-23T12:18:38.097Z,94.90
2023-11-23T12:21:15.323Z,94.73
2023-11-23T12:23:48.988Z,94.55
2023-11-23T12:26:17.856Z,94.40
2023-11-23T12:28:48.515Z,94.36
2023-11-23T12:31:22.925Z,94.28
2023-11-23T12:33:51.321Z,94.24
2023-11-23T12:36:20.189Z,94.21
2023-11-23T12:38:50.487Z,94.16
2023-11-23T12:41:20.668Z,94.12
2023-11-23T12:43:48.771Z,94.03
2023-11-23T12:46:18.752Z,94.02
2023-11-23T12:48:47.145Z,93.98
2023-11-23T12:51:15.814Z,93.93
2023-11-23T12:53:44.427Z,93.86
2023-11-23T12:56:12.837Z,93.83
2023-11-23T12:58:41.801Z,93.80
2023-11-23T13:01:13.351Z,93.66
2023-11-23T13:03:43.648Z,93.65
2023-11-23T13:06:13.515Z,93.60
2023-11-23T13:08:41.680Z,93.57
2023-11-23T13:11:10.152Z,93.43
2023-11-23T13:13:40.179Z,93.43
2023-11-23T13:16:08.556Z,93.33
2023-11-23T13:18:53.546Z,93.28
2023-11-23T13:21:30.395Z,93.21
2023-11-23T13:24:00.864Z,93.13
2023-11-23T13:26:29.715Z,93.10
2023-11-23T13:28:58.687Z,93.04
2023-11-23T13:31:32.091Z,92.99
2023-11-23T13:34:02.376Z,92.95
2023-11-23T13:36:35.826Z,92.99
2023-11-23T13:39:04.499Z,92.98
2023-11-23T13:41:33.130Z,92.97
2023-11-23T13:44:02.535Z,93.01
2023-11-23T13:46:33.771Z,93.07
2023-11-23T13:49:02.968Z,93.12
2023-11-23T13:51:34.682Z,93.19
2023-11-23T13:54:05.723Z,93.22
2023-11-23T13:56:34.249Z,93.28
2023-11-23T13:59:03.643Z,93.35
2023-11-23T14:01:32.331Z,93.41
2023-11-23T14:04:02.833Z,93.44
2023-11-23T14:06:33.793Z,93.54
2023-11-23T14:09:03.188Z,93.52
2023-11-23T14:11:31.704Z,93.52
2023-11-23T14:14:01.930Z,93.54
2023-11-23T14:16:31.108Z,93.52
2023-11-23T14:18:59.350Z,93.51
2023-11-23T14:21:29.948Z,93.56
2023-11-23T14:24:00.171Z,93.55
2023-11-23T14:26:28.364Z,93.55
2023-11-23T14:28:56.811Z,93.51
2023-11-23T14:31:25.959Z,93.50
2023-11-23T14:33:56.265Z,93.53
2023-11-23T14:36:24.929Z,93.48
2023-11-23T14:38:55.016Z,93.49
2023-11-23T14:41:26.209Z,93.50
2023-11-23T14:43:54.347Z,93.55
2023-11-23T14:46:22.909Z,93.58
2023-11-23T14:48:53.036Z,93.68
2023-11-23T14:51:23.547Z,93.76
2023-11-23T14:53:53.391Z,93.89
2023-11-23T14:56:24.516Z,94.05
2023-11-23T14:58:54.843Z,94.17
2023-11-23T15:01:24.267Z,94.27
2023-11-23T15:03:52.453Z,94.37
2023-11-23T15:06:21.434Z,94.96
2023-11-23T15:08:49.590Z,95.01
2023-11-23T15:11:20.737Z,94.69
2023-11-23T15:13:50.254Z,94.53
2023-11-23T15:16:21.057Z,94.51
2023-11-23T15:18:54.346Z,94.42
2023-11-23T15:21:28.405Z,94.45
2023-11-23T15:24:02.124Z,94.44
2023-11-23T15:26:31.254Z,94.41
2023-11-23T15:29:03.042Z,94.31
2023-11-23T15:31:34.249Z,94.28
2023-11-23T15:34:03.393Z,94.21
2023-11-23T15:36:34.798Z,94.15
2023-11-23T15:39:05.142Z,94.06
2023-11-23T15:41:34.502Z,93.93
2023-11-23T15:44:07.055Z,93.82
2023-11-23T15:46:37.561Z,93.68
2023-11-23T15:49:08.030Z,93.62
2023-11-23T15:51:37.129Z,93.56
2023-11-23T15:54:06.882Z,93.53
2023-11-23T15:56:36.646Z,93.42
2023-11-23T15:59:08.017Z,93.31
2023-11-23T16:01:40.627Z,93.17
2023-11-23T16:04:12.761Z,93.07
2023-11-23T16:06:42.507Z,93.00
2023-11-23T16:09:11.822Z,92.94
2023-11-23T16:11:46.237Z,92.89
2023-11-23T16:14:15.689Z,92.86
2023-11-23T16:16:46.894Z,92.82
2023-11-23T16:19:16.113Z,92.75
2023-11-23T16:21:45.023Z,92.70
2023-11-23T16:24:16.020Z,92.60
2023-11-23T16:26:47.175Z,92.53
2023-11-23T16:29:18.027Z,92.44
2023-11-23T16:31:50.906Z,92.33
2023-11-23T16:34:19.939Z,92.20
2023-11-23T16:36:49.821Z,92.05
2023-11-23T16:39:20.889Z,91.93
2023-11-23T16:41:51.259Z,91.85
2023-11-23T16:44:20.470Z,91.81
2023-11-23T16:46:55.155Z,91.73
2023-11-23T16:49:24.629Z,91.66
2023-11-23T16:51:54.060Z,91.63
2023-11-23T16:54:23.186Z,91.53
2023-11-23T16:56:53.875Z,91.49
2023-11-23T16:59:23.335Z,91.37
2023-11-23T17:01:55.646Z,91.30
2023-11-23T17:04:24.827Z,91.27
2023-11-23T17:06:53.694Z,91.32
2023-11-23T17:09:23.391Z,91.28
2023-11-23T17:11:54.271Z,91.34
2023-11-23T17:14:23.864Z,91.39
2023-11-23T17:16:55.743Z,91.37
2023-11-23T17:19:28.482Z,91.49
2023-11-23T17:21:59.478Z,91.52
2023-11-23T17:24:29.226Z,91.59
2023-11-23T17:26:58.708Z,91.67
2023-11-23T17:29:28.207Z,91.71
2023-11-23T17:31:59.673Z,91.75
2023-11-23T17:34:28.682Z,91.81
2023-11-23T17:36:56.779Z,91.86
2023-11-23T17:39:25.911Z,91.88
2023-11-23T17:41:55.002Z,91.94
2023-11-23T17:44:23.544Z,91.99
2023-11-23T17:46:55.094Z,92.01
2023-11-23T17:49:25.238Z,91.97
2023-11-23T17:51:54.755Z,91.97
2023-11-23T17:54:24.165Z,91.96
2023-11-23T17:56:52.653Z,91.94
2023-11-23T17:59:31.732Z,91.98
2023-11-23T18:02:10.455Z,92.01
2023-11-23T18:04:40.364Z,92.02
2023-11-23T18:07:08.695Z,92.09
2023-11-23T18:09:37.224Z,92.13
2023-11-23T18:12:09.956Z,92.29
2023-11-23T18:14:38.368Z,92.42
2023-11-23T18:17:08.100Z,92.58
2023-11-23T18:19:37.247Z,92.69
2023-11-23T18:22:08.807Z,92.88
2023-11-23T18:24:37.422Z,93.08
2023-11-23T18:27:07.655Z,93.32
2023-11-23T18:29:37.500Z,93.55
2023-11-23T18:32:09.501Z,93.77
2023-11-23T18:34:38.206Z,93.93
2023-11-23T18:37:11.339Z,94.10
2023-11-23T18:39:39.511Z,94.27
2023-11-23T18:42:10.728Z,94.39
2023-11-23T18:44:40.441Z,94.57
2023-11-23T18:47:08.547Z,94.73
2023-11-23T18:49:36.699Z,94.91
2023-11-23T18:52:05.192Z,95.10
2023-11-23T18:54:34.966Z,95.24
2023-11-23T18:57:03.636Z,95.39
2023-11-23T18:59:31.812Z,95.50
2023-11-23T19:02:01.733Z,95.63
2023-11-23T19:04:30.073Z,95.74
2023-11-23T19:06:58.330Z,95.86
2023-11-23T19:09:28.783Z,95.92
2023-11-23T19:11:59.191Z,95.99
2023-11-23T19:14:27.456Z,96.13
2023-11-23T19:16:55.757Z,96.18
2023-11-23T19:19:23.565Z,96.23
2023-11-23T19:21:52.110Z,96.26
2023-11-23T19:24:20.795Z,96.30
2023-11-23T19:26:49.759Z,96.34
2023-11-23T19:29:34.929Z,96.32
2023-11-23T19:32:09.781Z,96.32
2023-11-23T19:34:39.271Z,96.33
2023-11-23T19:37:08.176Z,96.38
2023-11-23T19:39:37.487Z,96.45
2023-11-23T19:42:07.249Z,96.52
2023-11-23T19:44:37.752Z,96.34
2023-11-23T19:47:06.590Z,96.10
2023-11-23T19:49:36.316Z,96.01
2023-11-23T19:52:08.516Z,95.91
2023-11-23T19:54:36.767Z,95.75
2023-11-23T19:57:05.552Z,95.63
2023-11-23T19:59:33.970Z,95.65
2023-11-23T20:02:03.988Z,95.66
2023-11-23T20:04:34.195Z,95.65
2023-11-23T20:07:04.576Z,95.54
2023-11-23T20:09:32.675Z,95.54
2023-11-23T20:12:01.782Z,95.52
2023-11-23T20:14:29.952Z,95.58
2023-11-23T20:16:58.661Z,95.57
2023-11-23T20:19:29.948Z,95.50
2023-11-23T20:21:58.448Z,95.32
2023-11-23T20:24:26.945Z,95.35
2023-11-23T20:26:55.373Z,95.22
2023-11-23T20:29:23.821Z,95.10
2023-11-23T20:31:52.354Z,95.07
2023-11-23T20:34:20.935Z,94.78
2023-11-23T20:36:50.657Z,94.50
2023-11-23T20:39:19.058Z,94.30
2023-11-23T20:41:51.318Z,93.89
2023-11-23T20:44:19.733Z,93.49
2023-11-23T20:46:49.321Z,93.30
2023-11-23T20:49:19.362Z,93.09
2023-11-23T20:51:48.054Z,92.85
2023-11-23T20:54:18.998Z,92.52
2023-11-23T20:56:48.498Z,92.52
2023-11-23T20:59:17.696Z,92.36
2023-11-23T21:01:46.523Z,92.31
2023-11-23T21:04:16.916Z,92.15
2023-11-23T21:06:58.575Z,92.22
2023-11-23T21:09:35.659Z,92.20
2023-11-23T21:12:06.584Z,92.05
2023-11-23T21:14:38.768Z,91.79
2023-11-23T21:17:07.953Z,91.70
2023-11-23T21:19:39.596Z,91.79
2023-11-23T21:22:08.346Z,91.46
2023-11-23T21:24:38.722Z,91.46
2023-11-23T21:27:07.856Z,91.37
2023-11-23T21:29:36.372Z,90.97
2023-11-23T21:32:04.655Z,90.85
2023-11-23T21:34:32.706Z,90.60
2023-11-23T21:37:01.403Z,90.27
2023-11-23T21:39:30.056Z,89.92
2023-11-23T21:42:00.618Z,90.04
2023-11-23T21:44:28.791Z,90.63
2023-11-23T21:46:59.284Z,90.68
2023-11-23T21:49:27.934Z,90.63
2023-11-23T21:51:56.160Z,90.38
2023-11-23T21:54:24.454Z,90.43
2023-11-23T21:56:54.770Z,90.66
2023-11-23T21:59:24.346Z,90.54
2023-11-23T22:01:52.607Z,90.31
2023-11-23T22:04:20.923Z,90.11
2023-11-23T22:06:49.758Z,90.00
2023-11-23T22:09:18.148Z,89.90
2023-11-23T22:11:46.427Z,89.93
2023-11-23T22:14:14.674Z,90.27
2023-11-23T22:16:46.459Z,90.56
2023-11-23T22:19:16.271Z,90.58
2023-11-23T22:21:46.864Z,90.79
2023-11-23T22:24:18.179Z,90.87
2023-11-23T22:26:47.194Z,90.91
2023-11-23T22:29:15.486Z,90.80
2023-11-23T22:31:46.059Z,90.17
2023-11-23T22:34:15.644Z,90.16
2023-11-23T22:36:44.566Z,90.10
2023-11-23T22:39:13.460Z,89.66
2023-11-23T22:41:42.195Z,89.39
2023-11-23T22:44:13.695Z,89.23
2023-11-23T22:46:43.306Z,89.20
2023-11-23T22:49:13.167Z,89.04
2023-11-23T22:51:44.144Z,88.90
2023-11-23T22:54:12.772Z,88.91
2023-11-23T22:56:43.721Z,88.74
2023-11-23T22:59:12.059Z,88.59
2023-11-23T23:01:40.520Z,88.56
2023-11-23T23:04:11.295Z,87.94
2023-11-23T23:06:43.726Z,87.53
2023-11-23T23:09:13.146Z,87.22
2023-11-23T23:11:41.827Z,87.09
2023-11-23T23:14:10.934Z,87.69
2023-11-23T23:16:39.635Z,86.84
2023-11-23T23:19:08.056Z,86.64
2023-11-23T23:21:36.740Z,86.04
2023-11-23T23:24:07.363Z,85.86
2023-11-23T23:26:35.412Z,85.86
2023-11-23T23:29:05.181Z,84.73
2023-11-23T23:31:34.382Z,84.15
2023-11-23T23:34:02.929Z,83.58
2023-11-23T23:36:33.226Z,83.65
2023-11-23T23:39:01.398Z,82.90
2023-11-23T23:41:30.881Z,82.89
2023-11-23T23:43:59.046Z,83.04
2023-11-23T23:46:27.407Z,82.93
2023-11-23T23:48:55.554Z,82.91
2023-11-23T23:51:26.055Z,82.74
2023-11-23T23:53:54.958Z,82.22
2023-11-23T23:56:23.515Z,82.21
2023-11-23T23:58:53.626Z,81.79
